createdAt,value
2019-02-18T00:01:32.856Z,6.00
2019-02-18T00:04:02.608Z,6.10
2019-02-18T00:06:33.360Z,5.77
2019-02-18T00:09:02.436Z,5.43
2019-02-18T00:11:31.649Z,5.13
2019-02-18T00:14:00.837Z,6.00
2019-02-18T00:16:33.183Z,5.43
2019-02-18T00:19:02.610Z,5.20
2019-02-18T00:21:33.689Z,5.57
2019-02-18T00:24:03.139Z,6.17
2019-02-18T00:26:32.337Z,5.50
2019-02-18T00:29:02.137Z,5.63
2019-02-18T00:31:31.265Z,5.77
2019-02-18T00:34:06.397Z,5.70
2019-02-18T00:36:36.059Z,6.07
2019-02-18T00:39:05.562Z,5.37
2019-02-18T00:41:34.648Z,6.10
2019-02-18T00:44:03.872Z,5.57
2019-02-18T00:46:34.049Z,6.00
2019-02-18T00:49:03.144Z,5.03
2019-02-18T00:51:32.329Z,6.03
2019-02-18T00:54:01.486Z,5.40
2019-02-18T00:56:39.045Z,6.20
2019-02-18T00:59:08.099Z,5.53
2019-02-18T01:01:37.229Z,5.90
2019-02-18T01:04:06.330Z,5.30
2019-02-18T01:06:35.571Z,5.53
2019-02-18T01:09:05.691Z,5.40
2019-02-18T01:11:35.306Z,5.50
2019-02-18T01:14:04.610Z,5.83
2019-02-18T01:16:33.771Z,5.43
2019-02-18T01:19:09.164Z,5.50
2019-02-18T01:21:38.337Z,5.47
2019-02-18T01:24:07.444Z,5.20
2019-02-18T01:26:36.668Z,5.40
2019-02-18T01:29:05.695Z,5.27
2019-02-18T01:31:34.879Z,4.60
2019-02-18T01:34:03.944Z,4.93
2019-02-18T01:36:33.095Z,5.40
2019-02-18T01:39:02.161Z,5.40
2019-02-18T01:41:41.420Z,5.97
2019-02-18T01:44:10.569Z,4.67
2019-02-18T01:46:39.706Z,5.27
2019-02-18T01:49:08.883Z,5.70
2019-02-18T01:51:37.932Z,5.57
2019-02-18T01:54:07.181Z,5.17
2019-02-18T01:56:36.463Z,5.00
2019-02-18T01:59:05.673Z,5.40
2019-02-18T02:01:34.815Z,4.97
2019-02-18T02:04:14.201Z,5.03
2019-02-18T02:06:43.378Z,4.57
2019-02-18T02:09:14.089Z,4.67
2019-02-18T02:11:43.470Z,5.10
2019-02-18T02:14:12.627Z,4.97
2019-02-18T02:16:41.849Z,4.73
2019-02-18T02:19:10.942Z,4.67
2019-02-18T02:21:40.165Z,4.50
2019-02-18T02:24:12.420Z,4.80
2019-02-18T02:26:45.810Z,4.67
2019-02-18T02:29:15.158Z,5.03
2019-02-18T02:31:44.533Z,4.60
2019-02-18T02:34:13.714Z,4.67
2019-02-18T02:36:42.928Z,4.87
2019-02-18T02:39:12.019Z,4.97
2019-02-18T02:41:41.201Z,4.77
2019-02-18T02:44:10.318Z,4.80
2019-02-18T02:46:39.482Z,4.83
2019-02-18T02:49:08.675Z,4.70
2019-02-18T02:51:37.815Z,5.17
2019-02-18T02:54:06.977Z,4.77
2019-02-18T02:56:37.402Z,4.43
2019-02-18T02:59:06.719Z,4.73
2019-02-18T03:01:35.823Z,4.77
2019-02-18T03:04:05.009Z,4.63
2019-02-18T03:06:34.110Z,4.80
2019-02-18T03:09:04.489Z,4.17
2019-02-18T03:11:33.560Z,4.80
2019-02-18T03:14:02.794Z,4.30
2019-02-18T03:16:31.950Z,4.57
2019-02-18T03:19:01.150Z,4.67
2019-02-18T03:21:30.242Z,4.53
2019-02-18T03:24:05.899Z,4.03
2019-02-18T03:26:35.068Z,5.00
2019-02-18T03:29:22.394Z,4.60
2019-02-18T03:31:51.577Z,4.77
2019-02-18T03:34:25.496Z,3.73
2019-02-18T03:36:54.795Z,4.50
2019-02-18T03:39:23.833Z,4.73
2019-02-18T03:41:53.274Z,4.60
2019-02-18T03:44:22.450Z,4.27
2019-02-18T03:46:51.641Z,4.40
2019-02-18T03:49:20.715Z,4.77
2019-02-18T03:51:49.966Z,4.37
2019-02-18T03:54:19.094Z,4.47
2019-02-18T03:56:48.236Z,4.60
2019-02-18T03:59:17.807Z,4.30
2019-02-18T04:01:48.049Z,4.23
2019-02-18T04:04:17.260Z,4.10
2019-02-18T04:06:46.614Z,4.53
2019-02-18T04:09:16.013Z,4.30
2019-02-18T04:11:45.098Z,4.40
2019-02-18T04:14:14.224Z,4.73
2019-02-18T04:16:43.379Z,4.27
2019-02-18T04:19:12.585Z,4.97
2019-02-18T04:21:41.769Z,4.73
2019-02-18T04:24:11.555Z,4.67
2019-02-18T04:26:43.983Z,4.43
2019-02-18T04:29:13.074Z,4.40
2019-02-18T04:31:42.243Z,4.20
2019-02-18T04:34:11.478Z,3.73
2019-02-18T04:36:40.612Z,4.50
2019-02-18T04:39:09.677Z,4.70
2019-02-18T04:41:39.210Z,4.73
2019-02-18T04:44:08.500Z,4.43
2019-02-18T04:46:37.870Z,4.50
2019-02-18T04:49:07.189Z,3.83
2019-02-18T04:51:36.406Z,4.63
2019-02-18T04:54:05.486Z,4.30
2019-02-18T04:56:34.744Z,4.57
2019-02-18T04:59:03.996Z,4.40
2019-02-18T05:01:33.184Z,5.63
2019-02-18T05:04:02.253Z,4.70
2019-02-18T05:06:31.426Z,4.30
2019-02-18T05:09:05.314Z,3.67
2019-02-18T05:11:31.421Z,4.77
2019-02-18T05:14:00.578Z,4.10
2019-02-18T05:16:30.194Z,4.70
2019-02-18T05:18:59.771Z,5.03
2019-02-18T05:21:29.135Z,4.30
2019-02-18T05:24:01.333Z,4.47
2019-02-18T05:26:29.997Z,4.27
2019-02-18T05:29:11.169Z,5.23
2019-02-18T05:31:45.361Z,4.50
2019-02-18T05:34:15.287Z,5.00
2019-02-18T05:36:47.524Z,4.13
2019-02-18T05:39:18.600Z,4.43
2019-02-18T05:41:53.125Z,4.17
2019-02-18T05:44:25.345Z,4.43
2019-02-18T05:46:56.274Z,4.10
2019-02-18T05:49:26.174Z,4.23
2019-02-18T05:52:09.561Z,4.60
2019-02-18T05:54:39.870Z,3.90
2019-02-18T05:57:22.788Z,4.70
2019-02-18T06:02:44.985Z,4.70
2019-02-18T06:05:18.043Z,4.27
2019-02-18T06:07:51.080Z,5.60
2019-02-18T06:10:20.419Z,4.30
2019-02-18T06:12:50.325Z,4.67
2019-02-18T06:15:29.642Z,5.00
2019-02-18T06:18:11.622Z,5.00
2019-02-18T06:20:39.675Z,4.77
2019-02-18T06:23:16.992Z,4.80
2019-02-18T06:25:52.625Z,5.30
2019-02-18T06:28:22.774Z,4.53
2019-02-18T06:31:03.544Z,5.23
2019-02-18T06:33:38.027Z,5.00
2019-02-18T06:36:08.274Z,5.10
2019-02-18T06:38:38.120Z,5.00
2019-02-18T06:41:10.549Z,4.80
2019-02-18T06:43:40.147Z,5.27
2019-02-18T06:46:17.550Z,5.13
2019-02-18T06:48:48.787Z,5.53
2019-02-18T06:51:28.079Z,5.10
2019-02-18T06:53:59.973Z,5.43
2019-02-18T06:56:45.066Z,4.53
2019-02-18T06:59:29.902Z,6.33
2019-02-18T07:02:09.673Z,5.60
2019-02-18T07:04:53.335Z,5.13
2019-02-18T07:07:32.324Z,5.20
2019-02-18T07:10:08.952Z,5.40
2019-02-18T07:12:44.763Z,4.80
2019-02-18T07:15:16.755Z,5.20
2019-02-18T07:17:50.583Z,5.27
2019-02-18T07:20:21.555Z,4.77
2019-02-18T07:22:52.354Z,5.03
2019-02-18T07:25:27.163Z,4.97
2019-02-18T07:28:10.213Z,4.73
2019-02-18T07:30:42.659Z,4.90
2019-02-18T07:33:17.977Z,5.03
2019-02-18T07:35:47.327Z,5.20
2019-02-18T07:38:18.980Z,5.23
2019-02-18T07:40:50.114Z,5.83
2019-02-18T07:43:44.893Z,5.47
2019-02-18T07:46:26.421Z,5.53
2019-02-18T07:48:56.005Z,4.63
2019-02-18T07:51:32.089Z,5.53
2019-02-18T07:54:07.539Z,5.50
2019-02-18T07:56:46.810Z,5.30
2019-02-18T07:59:18.245Z,4.87
2019-02-18T08:01:51.557Z,5.50
2019-02-18T08:04:29.636Z,5.53
2019-02-18T08:06:58.549Z,5.43
2019-02-18T08:09:30.885Z,5.63
2019-02-18T08:12:00.984Z,6.20
2019-02-18T08:14:35.440Z,5.70
2019-02-18T08:17:08.369Z,5.60
2019-02-18T08:19:53.702Z,5.23
2019-02-18T08:22:29.799Z,5.40
2019-02-18T08:25:00.298Z,5.57
2019-02-18T08:27:31.166Z,5.40
2019-02-18T08:30:03.185Z,5.90
2019-02-18T08:32:42.468Z,5.63
2019-02-18T08:35:17.473Z,5.80
2019-02-18T08:37:49.304Z,5.10
2019-02-18T08:40:22.699Z,5.53
2019-02-18T08:42:52.222Z,5.80
2019-02-18T08:45:28.761Z,5.73
2019-02-18T08:48:09.578Z,5.50
2019-02-18T08:50:42.585Z,5.83
2019-02-18T08:53:17.658Z,5.07
2019-02-18T08:55:47.788Z,5.00
2019-02-18T08:58:25.260Z,5.43
2019-02-18T09:01:02.595Z,5.40
2019-02-18T09:03:29.132Z,5.70
2019-02-18T09:06:04.456Z,5.57
2019-02-18T09:08:38.057Z,5.83
2019-02-18T09:11:09.261Z,5.87
2019-02-18T09:13:43.968Z,5.30
2019-02-18T09:16:13.301Z,5.53
2019-02-18T09:18:42.747Z,5.53
2019-02-18T09:21:12.544Z,5.77
2019-02-18T09:23:54.948Z,6.40
2019-02-18T09:26:26.740Z,5.63
2019-02-18T09:29:02.205Z,5.17
2019-02-18T09:31:33.986Z,5.47
2019-02-18T09:34:08.187Z,5.87
2019-02-18T09:36:39.750Z,5.40
2019-02-18T09:39:30.595Z,5.90
2019-02-18T09:41:59.016Z,6.17
2019-02-18T09:44:52.725Z,6.07
2019-02-18T09:47:03.674Z,6.70
2019-02-18T09:49:36.781Z,6.13
2019-02-18T09:52:23.881Z,6.63
2019-02-18T09:54:54.950Z,6.00
2019-02-18T09:57:24.769Z,6.17
2019-02-18T09:59:59.752Z,6.03
2019-02-18T10:02:30.498Z,5.73
2019-02-18T10:05:00.168Z,5.83
2019-02-18T10:07:31.349Z,5.53
2019-02-18T10:10:13.700Z,5.73
2019-02-18T10:12:44.645Z,6.23
2019-02-18T10:15:28.405Z,5.97
2019-02-18T10:17:59.679Z,5.97
2019-02-18T10:20:42.269Z,6.47
2019-02-18T10:23:12.235Z,5.93
2019-02-18T10:25:43.385Z,5.97
2019-02-18T10:28:17.037Z,6.63
2019-02-18T10:30:48.296Z,6.20
2019-02-18T10:33:20.353Z,6.97
2019-02-18T10:35:49.374Z,6.50
2019-02-18T10:38:18.824Z,6.50
2019-02-18T10:40:54.936Z,6.80
2019-02-18T10:43:37.029Z,6.80
2019-02-18T10:46:16.702Z,6.87
2019-02-18T10:48:58.506Z,7.20
2019-02-18T10:51:38.411Z,6.60
2019-02-18T10:54:10.761Z,7.43
2019-02-18T10:56:52.730Z,5.70
2019-02-18T10:59:24.231Z,6.33
2019-02-18T11:01:59.098Z,6.17
2019-02-18T11:04:29.989Z,7.13
2019-02-18T11:07:20.730Z,6.83
2019-02-18T11:09:51.559Z,6.93
2019-02-18T11:12:25.117Z,7.17
2019-02-18T11:14:59.756Z,7.37
2019-02-18T11:17:38.626Z,6.73
2019-02-18T11:20:02.799Z,6.97
2019-02-18T11:22:34.104Z,6.97
2019-02-18T11:25:12.307Z,7.43
2019-02-18T11:27:45.377Z,7.03
2019-02-18T11:30:19.722Z,6.63
2019-02-18T11:32:52.529Z,6.87
2019-02-18T11:35:32.324Z,6.80
2019-02-18T11:38:07.455Z,7.10
2019-02-18T11:40:39.370Z,6.77
2019-02-18T11:43:16.053Z,6.90
2019-02-18T11:45:55.730Z,6.90
2019-02-18T11:48:25.339Z,7.50
2019-02-18T11:51:02.340Z,7.50
2019-02-18T11:53:40.970Z,7.10
2019-02-18T11:56:07.704Z,6.70
2019-02-18T11:58:42.783Z,6.67
2019-02-18T12:01:23.743Z,7.13
2019-02-18T12:03:54.518Z,7.17
2019-02-18T12:06:26.207Z,6.63
2019-02-18T12:08:57.486Z,6.63
2019-02-18T12:11:37.811Z,6.53
2019-02-18T12:14:08.788Z,6.90
2019-02-18T12:16:41.814Z,6.67
2019-02-18T12:19:18.483Z,7.57
2019-02-18T12:21:54.421Z,8.03
2019-02-18T12:24:28.081Z,8.03
2019-02-18T12:26:57.641Z,15.70
2019-02-18T12:29:29.775Z,14.17
2019-02-18T12:31:59.637Z,8.20
2019-02-18T12:34:31.982Z,6.90
2019-02-18T12:37:01.452Z,7.43
2019-02-18T12:39:30.888Z,6.70
2019-02-18T12:42:04.831Z,7.27
2019-02-18T12:44:39.946Z,6.97
2019-02-18T12:47:14.359Z,7.30
2019-02-18T12:49:46.561Z,7.10
2019-02-18T12:52:26.090Z,7.50
2019-02-18T12:55:00.156Z,6.50
2019-02-18T12:57:28.916Z,6.90
2019-02-18T13:00:03.117Z,6.20
2019-02-18T13:02:43.636Z,7.70
2019-02-18T13:05:15.378Z,6.63
2019-02-18T13:07:46.109Z,7.20
2019-02-18T13:10:21.057Z,6.57
2019-02-18T13:12:54.008Z,6.33
2019-02-18T13:15:23.899Z,5.50
2019-02-18T13:20:33.546Z,5.57
2019-02-18T13:23:22.126Z,5.70
2019-02-18T13:25:59.907Z,5.13
2019-02-18T13:28:34.141Z,4.90
2019-02-18T13:31:31.945Z,4.70
2019-02-18T13:34:02.069Z,4.70
2019-02-18T13:36:44.537Z,7.27
2019-02-18T13:39:14.306Z,5.07
2019-02-18T13:41:44.061Z,5.50
2019-02-18T13:44:21.497Z,5.10
2019-02-18T13:46:53.783Z,5.33
2019-02-18T13:49:26.447Z,5.23
2019-02-18T13:52:03.845Z,5.23
2019-02-18T13:54:34.363Z,5.53
2019-02-18T13:57:09.995Z,5.73
2019-02-18T13:59:39.255Z,4.80
2019-02-18T14:02:15.909Z,4.97
2019-02-18T14:04:45.937Z,4.90
2019-02-18T14:07:34.326Z,5.30
2019-02-18T14:10:13.138Z,4.93
2019-02-18T14:12:44.865Z,5.27
2019-02-18T14:15:25.646Z,4.90
2019-02-18T14:17:57.713Z,4.73
2019-02-18T14:20:29.971Z,5.20
2019-02-18T14:23:03.273Z,5.13
2019-02-18T14:25:35.826Z,5.50
2019-02-18T14:28:12.388Z,4.57
2019-02-18T14:30:46.739Z,4.57
2019-02-18T14:33:17.565Z,5.03
2019-02-18T14:35:47.125Z,5.13
2019-02-18T14:38:18.191Z,4.13
2019-02-18T14:40:52.522Z,5.17
2019-02-18T14:43:23.050Z,5.00
2019-02-18T14:46:03.955Z,5.10
2019-02-18T14:48:45.782Z,5.30
2019-02-18T14:51:19.968Z,4.93
2019-02-18T14:53:49.226Z,4.27
2019-02-18T14:56:25.223Z,4.90
2019-02-18T14:58:57.190Z,4.73
2019-02-18T15:01:44.673Z,4.37
2019-02-18T15:04:18.982Z,4.10
2019-02-18T15:06:55.136Z,4.73
2019-02-18T15:09:32.732Z,4.40
2019-02-18T15:12:07.787Z,4.70
2019-02-18T15:14:42.685Z,4.80
2019-02-18T15:17:17.433Z,4.53
2019-02-18T15:19:53.610Z,5.20
2019-02-18T15:22:42.049Z,4.03
2019-02-18T15:25:15.885Z,4.50
2019-02-18T15:27:49.924Z,4.20
2019-02-18T15:30:20.552Z,4.40
2019-02-18T15:32:50.356Z,3.93
2019-02-18T15:35:23.478Z,4.50
2019-02-18T15:37:53.622Z,4.37
2019-02-18T15:40:24.580Z,3.57
2019-02-18T15:42:56.491Z,4.73
2019-02-18T15:45:34.433Z,3.93
2019-02-18T15:48:08.447Z,4.13
2019-02-18T15:50:48.671Z,4.77
2019-02-18T15:53:17.812Z,4.03
2019-02-18T15:59:01.675Z,3.90
2019-02-18T16:01:58.801Z,5.20
2019-02-18T16:04:37.783Z,3.77
2019-02-18T16:07:02.702Z,4.40
2019-02-18T16:09:34.053Z,4.87
2019-02-18T16:12:10.663Z,4.20
2019-02-18T16:14:44.739Z,4.60
2019-02-18T16:17:14.332Z,4.47
2019-02-18T16:19:46.954Z,3.93
2019-02-18T16:22:20.510Z,4.30
2019-02-18T16:24:54.049Z,4.50
2019-02-18T16:30:16.614Z,4.80
2019-02-18T16:32:47.782Z,4.03
2019-02-18T16:35:35.999Z,4.53
2019-02-18T16:37:57.511Z,4.10
2019-02-18T16:40:30.976Z,3.80
2019-02-18T16:43:02.203Z,4.50
2019-02-18T16:45:38.509Z,4.57
2019-02-18T16:48:10.226Z,3.97
2019-02-18T16:50:44.316Z,4.10
2019-02-18T16:53:13.724Z,4.17
2019-02-18T16:55:43.349Z,4.57
2019-02-18T16:58:12.626Z,3.93
2019-02-18T17:00:44.227Z,4.33
2019-02-18T17:03:13.824Z,4.23
2019-02-18T17:05:43.095Z,4.50
2019-02-18T17:08:13.091Z,4.50
2019-02-18T17:10:43.613Z,5.60
2019-02-18T17:13:13.387Z,5.47
2019-02-18T17:15:44.009Z,4.23
2019-02-18T17:18:13.342Z,4.13
2019-02-18T17:20:43.977Z,4.50
2019-02-18T17:23:16.290Z,4.47
2019-02-18T17:25:45.381Z,4.40
2019-02-18T17:28:15.181Z,4.30
2019-02-18T17:30:44.435Z,4.53
2019-02-18T17:33:13.619Z,4.30
2019-02-18T17:35:44.191Z,4.10
2019-02-18T17:38:13.793Z,4.73
2019-02-18T17:40:43.351Z,4.47
2019-02-18T17:43:16.687Z,4.60
2019-02-18T17:45:56.181Z,4.83
2019-02-18T17:48:18.322Z,4.67
2019-02-18T17:50:49.468Z,4.67
2019-02-18T17:53:18.571Z,4.87
2019-02-18T17:55:50.882Z,4.63
2019-02-18T17:58:19.720Z,4.77
2019-02-18T18:00:50.780Z,4.83
2019-02-18T18:03:19.857Z,5.00
2019-02-18T18:05:56.535Z,4.90
2019-02-18T18:08:26.008Z,4.57
2019-02-18T18:10:55.429Z,4.67
2019-02-18T18:13:25.405Z,5.40
2019-02-18T18:15:56.999Z,4.83
2019-02-18T18:18:25.860Z,5.37
2019-02-18T18:20:55.402Z,5.67
2019-02-18T18:23:27.004Z,5.43
2019-02-18T18:25:56.870Z,5.73
2019-02-18T18:28:26.065Z,5.43
2019-02-18T18:30:55.359Z,5.90
2019-02-18T18:33:27.185Z,6.20
2019-02-18T18:35:56.420Z,6.13
2019-02-18T18:38:25.676Z,6.10
2019-02-18T18:40:55.016Z,6.60
2019-02-18T18:43:24.406Z,6.80
2019-02-18T18:45:54.057Z,7.73
2019-02-18T18:48:25.808Z,7.73
2019-02-18T18:50:54.897Z,8.03
2019-02-18T18:53:25.057Z,7.60
2019-02-18T18:55:54.238Z,6.80
2019-02-18T18:58:23.743Z,6.37
2019-02-18T19:00:52.994Z,6.47
2019-02-18T19:03:22.520Z,5.53
2019-02-18T19:05:52.909Z,6.30
2019-02-18T19:08:21.997Z,6.93
2019-02-18T19:10:51.392Z,6.13
2019-02-18T19:13:21.088Z,6.57
2019-02-18T19:15:51.264Z,6.87
2019-02-18T19:18:20.570Z,6.83
2019-02-18T19:20:49.785Z,6.43
2019-02-18T19:23:20.195Z,6.30
2019-02-18T19:25:49.863Z,6.33
2019-02-18T19:28:20.039Z,6.50
2019-02-18T19:30:49.290Z,6.13
2019-02-18T19:33:18.540Z,5.83
2019-02-18T19:35:50.019Z,6.37
2019-02-18T19:38:19.447Z,6.50
2019-02-18T19:40:49.212Z,6.90
2019-02-18T19:43:19.958Z,7.90
2019-02-18T19:45:50.462Z,6.97
2019-02-18T19:48:22.372Z,7.80
2019-02-18T19:50:51.518Z,7.03
2019-02-18T19:53:21.091Z,7.43
2019-02-18T19:55:52.439Z,8.60
2019-02-18T19:58:25.323Z,8.83
2019-02-18T20:00:54.430Z,7.73
2019-02-18T20:03:23.594Z,7.60
2019-02-18T20:05:53.791Z,8.00
2019-02-18T20:08:26.181Z,7.73
2019-02-18T20:10:57.365Z,8.20
2019-02-18T20:13:28.924Z,7.97
2019-02-18T20:15:59.546Z,8.80
2019-02-18T20:18:30.786Z,8.07
2019-02-18T20:21:01.095Z,8.67
2019-02-18T20:23:31.235Z,8.53
2019-02-18T20:26:00.523Z,8.23
2019-02-18T20:28:31.037Z,8.30
2019-02-18T20:31:00.481Z,8.13
2019-02-18T20:33:30.108Z,8.67
2019-02-18T20:36:01.901Z,8.53
2019-02-18T20:38:31.042Z,7.60
2019-02-18T20:41:00.330Z,7.97
2019-02-18T20:43:29.398Z,7.47
2019-02-18T20:45:59.568Z,7.37
2019-02-18T20:48:28.864Z,7.60
2019-02-18T20:50:59.792Z,8.30
2019-02-18T20:53:30.329Z,7.90
2019-02-18T20:56:00.582Z,8.33
2019-02-18T20:58:32.627Z,9.27
2019-02-18T21:01:02.711Z,10.10
2019-02-18T21:03:32.992Z,8.67
2019-02-18T21:06:02.241Z,8.83
2019-02-18T21:08:39.718Z,8.67
2019-02-18T21:11:10.014Z,8.53
2019-02-18T21:13:39.503Z,7.57
2019-02-18T21:16:08.647Z,7.63
2019-02-18T21:18:37.876Z,7.33
2019-02-18T21:21:08.928Z,7.67
2019-02-18T21:23:37.989Z,7.77
2019-02-18T21:26:09.365Z,7.43
2019-02-18T21:28:38.645Z,7.47
2019-02-18T21:31:08.519Z,6.53
2019-02-18T21:33:37.594Z,7.20
2019-02-18T21:36:06.772Z,7.57
2019-02-18T21:38:35.883Z,8.00
2019-02-18T21:41:05.268Z,6.57
2019-02-18T21:43:34.564Z,7.57
2019-02-18T21:46:03.964Z,7.40
2019-02-18T21:48:34.614Z,7.17
2019-02-18T21:51:03.883Z,7.90
2019-02-18T21:53:33.041Z,7.90
2019-02-18T21:56:02.211Z,7.30
2019-02-18T21:58:31.305Z,7.47
2019-02-18T22:01:00.588Z,7.00
2019-02-18T22:03:30.007Z,6.90
2019-02-18T22:06:00.620Z,7.17
2019-02-18T22:08:30.041Z,7.80
2019-02-18T22:11:00.223Z,7.93
2019-02-18T22:13:29.377Z,7.07
2019-02-18T22:15:58.533Z,7.13
2019-02-18T22:18:27.690Z,7.57
2019-02-18T22:20:56.775Z,7.43
2019-02-18T22:23:26.086Z,7.23
2019-02-18T22:25:55.515Z,7.73
2019-02-18T22:28:24.736Z,7.50
2019-02-18T22:30:53.851Z,7.27
2019-02-18T22:33:23.592Z,8.07
2019-02-18T22:35:52.849Z,7.57
2019-02-18T22:38:22.000Z,7.57
2019-02-18T22:40:51.308Z,7.60
2019-02-18T22:43:21.106Z,7.00
2019-02-18T22:45:50.367Z,7.90
2019-02-18T22:48:26.769Z,7.17
2019-02-18T22:50:51.897Z,7.93
2019-02-18T22:53:21.099Z,6.67
2019-02-18T22:56:01.758Z,6.90
2019-02-18T22:58:31.012Z,7.40
2019-02-18T23:01:01.392Z,6.50
2019-02-18T23:03:30.700Z,6.67
2019-02-18T23:05:59.880Z,6.87
2019-02-18T23:08:29.110Z,6.40
2019-02-18T23:11:01.284Z,6.47
2019-02-18T23:13:34.761Z,6.90
2019-02-18T23:16:05.064Z,6.77
2019-02-18T23:18:39.846Z,6.80
2019-02-18T23:21:08.731Z,6.47
2019-02-18T23:23:37.840Z,6.77
2019-02-18T23:26:07.874Z,6.50
2019-02-18T23:28:38.059Z,6.80
2019-02-18T23:31:07.238Z,7.27
2019-02-18T23:33:36.463Z,6.83
2019-02-18T23:36:05.872Z,7.20
2019-02-18T23:38:45.082Z,6.53
2019-02-18T23:41:12.793Z,6.90
2019-02-18T23:43:43.166Z,6.47
2019-02-18T23:46:12.363Z,6.73
2019-02-18T23:48:41.557Z,6.53
2019-02-18T23:51:10.785Z,6.90
2019-02-18T23:53:43.503Z,6.87
2019-02-18T23:56:13.045Z,6.50
2019-02-18T23:58:42.111Z,6.50
